sensor_id;sensor_type;location;lat;lon;timestamp;P1;durP1;ratioP1;P2;durP2;ratioP2
27666;SDS011;15074;50.940;5.282;2022-09-30T00:01:34;13.05;;;11.93;;
27666;SDS011;15074;50.940;5.282;2022-09-30T00:04:00;16.27;;;14.57;;
27666;SDS011;15074;50.940;5.282;2022-09-30T00:06:26;15.57;;;14.07;;
27666;SDS011;15074;50.940;5.282;2022-09-30T00:08:54;16.13;;;14.60;;
27666;SDS011;15074;50.940;5.282;2022-09-30T00:11:25;14.77;;;13.27;;
27666;SDS011;15074;50.940;5.282;2022-09-30T00:13:53;17.58;;;14.40;;
27666;SDS011;15074;50.940;5.282;2022-09-30T00:16:20;15.48;;;14.07;;
27666;SDS011;15074;50.940;5.282;2022-09-30T00:18:47;15.57;;;13.88;;
27666;SDS011;15074;50.940;5.282;2022-09-30T00:21:13;14.55;;;13.35;;
27666;SDS011;15074;50.940;5.282;2022-09-30T00:23:40;14.43;;;13.23;;
27666;SDS011;15074;50.940;5.282;2022-09-30T00:26:09;11.52;;;10.63;;
27666;SDS011;15074;50.940;5.282;2022-09-30T00:28:37;9.90;;;9.20;;
27666;SDS011;15074;50.940;5.282;2022-09-30T00:31:04;11.60;;;10.68;;
27666;SDS011;15074;50.940;5.282;2022-09-30T00:33:32;11.95;;;10.75;;
27666;SDS011;15074;50.940;5.282;2022-09-30T00:35:58;14.27;;;12.98;;
27666;SDS011;15074;50.940;5.282;2022-09-30T00:38:24;14.43;;;12.98;;
27666;SDS011;15074;50.940;5.282;2022-09-30T00:40:51;16.45;;;13.18;;
27666;SDS011;15074;50.940;5.282;2022-09-30T00:43:18;14.75;;;13.40;;
27666;SDS011;15074;50.940;5.282;2022-09-30T00:46:02;13.55;;;12.35;;
27666;SDS011;15074;50.940;5.282;2022-09-30T00:48:31;14.98;;;13.50;;
27666;SDS011;15074;50.940;5.282;2022-09-30T00:51:01;14.35;;;12.93;;
27666;SDS011;15074;50.940;5.282;2022-09-30T00:53:34;16.27;;;14.43;;
27666;SDS011;15074;50.940;5.282;2022-09-30T00:56:11;17.40;;;14.65;;
27666;SDS011;15074;50.940;5.282;2022-09-30T01:01:11;16.13;;;14.40;;
27666;SDS011;15074;50.940;5.282;2022-09-30T01:03:40;16.10;;;14.65;;
27666;SDS011;15074;50.940;5.282;2022-09-30T01:06:09;15.68;;;14.07;;
27666;SDS011;15074;50.940;5.282;2022-09-30T01:08:36;13.95;;;12.73;;
27666;SDS011;15074;50.940;5.282;2022-09-30T01:11:03;15.95;;;14.40;;
27666;SDS011;15074;50.940;5.282;2022-09-30T01:13:29;13.82;;;12.27;;
27666;SDS011;15074;50.940;5.282;2022-09-30T01:24:11;14.75;;;13.45;;
27666;SDS011;15074;50.940;5.282;2022-09-30T01:29:48;16.10;;;13.90;;
27666;SDS011;15074;50.940;5.282;2022-09-30T01:38:11;17.83;;;15.93;;
27666;SDS011;15074;50.940;5.282;2022-09-30T01:41:07;18.67;;;16.98;;
27666;SDS011;15074;50.940;5.282;2022-09-30T01:44:13;19.08;;;17.30;;
27666;SDS011;15074;50.940;5.282;2022-09-30T01:46:52;18.27;;;16.48;;
27666;SDS011;15074;50.940;5.282;2022-09-30T01:55:32;26.30;;;19.23;;
27666;SDS011;15074;50.940;5.282;2022-09-30T01:58:08;20.65;;;18.50;;
27666;SDS011;15074;50.940;5.282;2022-09-30T02:00:39;25.55;;;20.98;;
27666;SDS011;15074;50.940;5.282;2022-09-30T02:03:14;20.70;;;18.50;;
27666;SDS011;15074;50.940;5.282;2022-09-30T02:16:23;26.58;;;20.27;;
27666;SDS011;15074;50.940;5.282;2022-09-30T02:19:02;19.90;;;17.48;;
27666;SDS011;15074;50.940;5.282;2022-09-30T02:22:00;16.05;;;14.50;;
27666;SDS011;15074;50.940;5.282;2022-09-30T02:24:35;20.20;;;16.48;;
27666;SDS011;15074;50.940;5.282;2022-09-30T02:27:03;20.20;;;18.17;;
27666;SDS011;15074;50.940;5.282;2022-09-30T02:29:35;23.13;;;18.77;;
27666;SDS011;15074;50.940;5.282;2022-09-30T02:32:08;20.85;;;17.90;;
27666;SDS011;15074;50.940;5.282;2022-09-30T02:34:40;21.52;;;17.85;;
27666;SDS011;15074;50.940;5.282;2022-09-30T02:39:40;17.92;;;16.23;;
27666;SDS011;15074;50.940;5.282;2022-09-30T02:42:22;16.92;;;15.18;;
27666;SDS011;15074;50.940;5.282;2022-09-30T02:44:53;20.60;;;17.42;;
27666;SDS011;15074;50.940;5.282;2022-09-30T02:47:25;23.27;;;19.13;;
27666;SDS011;15074;50.940;5.282;2022-09-30T02:50:10;36.05;;;21.75;;
27666;SDS011;15074;50.940;5.282;2022-09-30T02:55:34;25.27;;;20.63;;
27666;SDS011;15074;50.940;5.282;2022-09-30T02:58:13;34.03;;;22.30;;
27666;SDS011;15074;50.940;5.282;2022-09-30T03:00:42;33.65;;;22.30;;
27666;SDS011;15074;50.940;5.282;2022-09-30T03:03:13;29.27;;;22.23;;
27666;SDS011;15074;50.940;5.282;2022-09-30T03:05:42;20.92;;;18.85;;
27666;SDS011;15074;50.940;5.282;2022-09-30T03:08:09;24.45;;;18.70;;
27666;SDS011;15074;50.940;5.282;2022-09-30T03:10:35;24.02;;;19.80;;
27666;SDS011;15074;50.940;5.282;2022-09-30T03:16:04;22.42;;;20.08;;
27666;SDS011;15074;50.940;5.282;2022-09-30T03:18:44;23.98;;;20.40;;
27666;SDS011;15074;50.940;5.282;2022-09-30T03:21:23;22.85;;;20.13;;
27666;SDS011;15074;50.940;5.282;2022-09-30T03:30:00;23.95;;;18.92;;
27666;SDS011;15074;50.940;5.282;2022-09-30T03:36:04;21.17;;;18.23;;
27666;SDS011;15074;50.940;5.282;2022-09-30T03:46:31;29.25;;;18.75;;
27666;SDS011;15074;50.940;5.282;2022-09-30T03:49:01;22.33;;;18.55;;
27666;SDS011;15074;50.940;5.282;2022-09-30T03:51:37;25.33;;;19.73;;
27666;SDS011;15074;50.940;5.282;2022-09-30T03:54:10;33.05;;;22.00;;
27666;SDS011;15074;50.940;5.282;2022-09-30T03:56:38;30.73;;;22.75;;
27666;SDS011;15074;50.940;5.282;2022-09-30T03:59:11;33.00;;;23.15;;
27666;SDS011;15074;50.940;5.282;2022-09-30T04:01:43;28.52;;;22.20;;
27666;SDS011;15074;50.940;5.282;2022-09-30T04:04:09;26.55;;;21.33;;
27666;SDS011;15074;50.940;5.282;2022-09-30T04:06:37;24.90;;;19.60;;
27666;SDS011;15074;50.940;5.282;2022-09-30T04:09:02;24.55;;;19.77;;
27666;SDS011;15074;50.940;5.282;2022-09-30T04:11:28;26.92;;;21.02;;
27666;SDS011;15074;50.940;5.282;2022-09-30T04:13:53;24.50;;;20.45;;
27666;SDS011;15074;50.940;5.282;2022-09-30T04:16:19;25.20;;;20.50;;
27666;SDS011;15074;50.940;5.282;2022-09-30T04:18:45;20.40;;;18.35;;
27666;SDS011;15074;50.940;5.282;2022-09-30T04:21:11;20.90;;;18.38;;
27666;SDS011;15074;50.940;5.282;2022-09-30T04:23:39;20.05;;;18.00;;
27666;SDS011;15074;50.940;5.282;2022-09-30T04:26:06;21.98;;;18.27;;
27666;SDS011;15074;50.940;5.282;2022-09-30T04:28:34;25.83;;;17.90;;
27666;SDS011;15074;50.940;5.282;2022-09-30T04:31:04;26.50;;;18.42;;
27666;SDS011;15074;50.940;5.282;2022-09-30T04:33:30;21.55;;;19.30;;
27666;SDS011;15074;50.940;5.282;2022-09-30T04:35:56;23.90;;;19.17;;
27666;SDS011;15074;50.940;5.282;2022-09-30T04:38:23;21.08;;;18.95;;
27666;SDS011;15074;50.940;5.282;2022-09-30T04:40:50;24.17;;;19.00;;
27666;SDS011;15074;50.940;5.282;2022-09-30T04:43:17;16.70;;;14.95;;
27666;SDS011;15074;50.940;5.282;2022-09-30T04:45:46;17.33;;;15.52;;
27666;SDS011;15074;50.940;5.282;2022-09-30T04:48:12;17.98;;;15.95;;
27666;SDS011;15074;50.940;5.282;2022-09-30T04:50:38;18.20;;;16.38;;
27666;SDS011;15074;50.940;5.282;2022-09-30T04:53:05;14.80;;;13.52;;
27666;SDS011;15074;50.940;5.282;2022-09-30T04:55:31;14.68;;;13.38;;
27666;SDS011;15074;50.940;5.282;2022-09-30T04:57:57;18.20;;;15.63;;
27666;SDS011;15074;50.940;5.282;2022-09-30T05:00:22;21.30;;;15.48;;
27666;SDS011;15074;50.940;5.282;2022-09-30T05:02:49;19.95;;;17.35;;
27666;SDS011;15074;50.940;5.282;2022-09-30T05:05:15;18.73;;;16.83;;
27666;SDS011;15074;50.940;5.282;2022-09-30T05:07:41;19.23;;;17.23;;
27666;SDS011;15074;50.940;5.282;2022-09-30T05:10:07;20.98;;;18.15;;
27666;SDS011;15074;50.940;5.282;2022-09-30T05:12:35;23.58;;;20.60;;
27666;SDS011;15074;50.940;5.282;2022-09-30T05:15:01;41.60;;;24.13;;
27666;SDS011;15074;50.940;5.282;2022-09-30T05:17:30;34.80;;;24.60;;
27666;SDS011;15074;50.940;5.282;2022-09-30T05:19:56;40.88;;;26.48;;
27666;SDS011;15074;50.940;5.282;2022-09-30T05:22:22;58.13;;;30.98;;
27666;SDS011;15074;50.940;5.282;2022-09-30T05:24:49;45.33;;;29.40;;
27666;SDS011;15074;50.940;5.282;2022-09-30T05:27:16;59.80;;;32.25;;
27666;SDS011;15074;50.940;5.282;2022-09-30T05:29:43;48.60;;;29.85;;
27666;SDS011;15074;50.940;5.282;2022-09-30T05:32:09;48.25;;;28.35;;
27666;SDS011;15074;50.940;5.282;2022-09-30T05:34:35;43.10;;;27.83;;
27666;SDS011;15074;50.940;5.282;2022-09-30T05:37:02;41.65;;;26.48;;
27666;SDS011;15074;50.940;5.282;2022-09-30T05:39:28;41.85;;;26.67;;
27666;SDS011;15074;50.940;5.282;2022-09-30T05:41:55;37.97;;;25.88;;
27666;SDS011;15074;50.940;5.282;2022-09-30T05:44:21;38.70;;;24.87;;
27666;SDS011;15074;50.940;5.282;2022-09-30T05:46:47;43.58;;;27.25;;
27666;SDS011;15074;50.940;5.282;2022-09-30T05:49:12;42.92;;;26.42;;
27666;SDS011;15074;50.940;5.282;2022-09-30T05:51:38;44.28;;;25.98;;
27666;SDS011;15074;50.940;5.282;2022-09-30T05:54:04;40.85;;;25.40;;
27666;SDS011;15074;50.940;5.282;2022-09-30T05:56:30;46.72;;;25.13;;
27666;SDS011;15074;50.940;5.282;2022-09-30T05:58:58;36.42;;;24.83;;
27666;SDS011;15074;50.940;5.282;2022-09-30T06:01:24;35.25;;;21.90;;
27666;SDS011;15074;50.940;5.282;2022-09-30T06:03:49;27.73;;;21.63;;
27666;SDS011;15074;50.940;5.282;2022-09-30T06:06:15;28.35;;;21.10;;
27666;SDS011;15074;50.940;5.282;2022-09-30T06:08:43;38.13;;;21.48;;
27666;SDS011;15074;50.940;5.282;2022-09-30T06:11:13;32.58;;;22.73;;
27666;SDS011;15074;50.940;5.282;2022-09-30T06:13:40;30.17;;;20.25;;
27666;SDS011;15074;50.940;5.282;2022-09-30T06:16:07;26.38;;;20.13;;
27666;SDS011;15074;50.940;5.282;2022-09-30T06:18:34;23.50;;;16.83;;
27666;SDS011;15074;50.940;5.282;2022-09-30T06:21:01;21.85;;;16.00;;
27666;SDS011;15074;50.940;5.282;2022-09-30T06:23:29;17.88;;;16.13;;
27666;SDS011;15074;50.940;5.282;2022-09-30T06:25:55;16.83;;;15.13;;
27666;SDS011;15074;50.940;5.282;2022-09-30T06:28:22;16.25;;;14.23;;
27666;SDS011;15074;50.940;5.282;2022-09-30T06:30:48;15.82;;;14.10;;
27666;SDS011;15074;50.940;5.282;2022-09-30T06:33:14;16.92;;;15.25;;
27666;SDS011;15074;50.940;5.282;2022-09-30T06:35:41;18.60;;;16.65;;
27666;SDS011;15074;50.940;5.282;2022-09-30T06:38:09;19.00;;;17.10;;
27666;SDS011;15074;50.940;5.282;2022-09-30T06:40:36;18.48;;;16.58;;
27666;SDS011;15074;50.940;5.282;2022-09-30T06:43:02;21.52;;;16.30;;
27666;SDS011;15074;50.940;5.282;2022-09-30T06:45:29;18.83;;;16.48;;
27666;SDS011;15074;50.940;5.282;2022-09-30T06:47:57;18.85;;;16.67;;
27666;SDS011;15074;50.940;5.282;2022-09-30T06:50:23;18.00;;;16.23;;
27666;SDS011;15074;50.940;5.282;2022-09-30T06:52:49;17.77;;;15.82;;
27666;SDS011;15074;50.940;5.282;2022-09-30T06:55:15;19.83;;;17.75;;
27666;SDS011;15074;50.940;5.282;2022-09-30T06:57:48;25.63;;;16.90;;
27666;SDS011;15074;50.940;5.282;2022-09-30T07:00:14;18.10;;;16.23;;
27666;SDS011;15074;50.940;5.282;2022-09-30T07:02:41;17.65;;;15.93;;
27666;SDS011;15074;50.940;5.282;2022-09-30T07:05:07;18.17;;;15.65;;
27666;SDS011;15074;50.940;5.282;2022-09-30T07:07:33;17.20;;;15.70;;
27666;SDS011;15074;50.940;5.282;2022-09-30T07:10:00;17.25;;;15.68;;
27666;SDS011;15074;50.940;5.282;2022-09-30T07:12:26;18.50;;;16.08;;
27666;SDS011;15074;50.940;5.282;2022-09-30T07:14:52;21.45;;;16.33;;
27666;SDS011;15074;50.940;5.282;2022-09-30T07:17:20;18.73;;;17.00;;
27666;SDS011;15074;50.940;5.282;2022-09-30T07:19:45;20.90;;;17.63;;
27666;SDS011;15074;50.940;5.282;2022-09-30T07:22:11;24.60;;;19.10;;
27666;SDS011;15074;50.940;5.282;2022-09-30T07:24:52;32.83;;;20.50;;
27666;SDS011;15074;50.940;5.282;2022-09-30T07:27:19;22.23;;;18.52;;
27666;SDS011;15074;50.940;5.282;2022-09-30T07:29:45;22.30;;;19.92;;
27666;SDS011;15074;50.940;5.282;2022-09-30T07:32:12;24.58;;;19.83;;
27666;SDS011;15074;50.940;5.282;2022-09-30T07:34:38;22.38;;;18.85;;
27666;SDS011;15074;50.940;5.282;2022-09-30T07:37:07;23.13;;;19.85;;
27666;SDS011;15074;50.940;5.282;2022-09-30T07:39:38;27.42;;;18.58;;
27666;SDS011;15074;50.940;5.282;2022-09-30T07:42:08;26.83;;;17.92;;
27666;SDS011;15074;50.940;5.282;2022-09-30T07:44:34;20.48;;;18.35;;
27666;SDS011;15074;50.940;5.282;2022-09-30T07:47:05;19.20;;;17.15;;
27666;SDS011;15074;50.940;5.282;2022-09-30T07:49:32;20.95;;;17.65;;
27666;SDS011;15074;50.940;5.282;2022-09-30T07:51:58;19.33;;;17.52;;
27666;SDS011;15074;50.940;5.282;2022-09-30T07:54:26;20.38;;;17.40;;
27666;SDS011;15074;50.940;5.282;2022-09-30T07:56:53;22.98;;;17.58;;
27666;SDS011;15074;50.940;5.282;2022-09-30T07:59:19;18.13;;;16.45;;
27666;SDS011;15074;50.940;5.282;2022-09-30T08:01:45;18.05;;;16.35;;
27666;SDS011;15074;50.940;5.282;2022-09-30T08:04:11;18.27;;;16.55;;
27666;SDS011;15074;50.940;5.282;2022-09-30T08:06:39;18.02;;;16.17;;
27666;SDS011;15074;50.940;5.282;2022-09-30T08:09:07;18.27;;;15.85;;
27666;SDS011;15074;50.940;5.282;2022-09-30T08:11:34;17.15;;;15.75;;
27666;SDS011;15074;50.940;5.282;2022-09-30T08:14:01;16.70;;;15.32;;
27666;SDS011;15074;50.940;5.282;2022-09-30T08:16:27;17.63;;;16.13;;
27666;SDS011;15074;50.940;5.282;2022-09-30T08:18:53;17.08;;;15.48;;
27666;SDS011;15074;50.940;5.282;2022-09-30T08:21:20;17.52;;;15.73;;
27666;SDS011;15074;50.940;5.282;2022-09-30T08:23:46;17.00;;;13.68;;
27666;SDS011;15074;50.940;5.282;2022-09-30T08:26:12;14.68;;;13.18;;
27666;SDS011;15074;50.940;5.282;2022-09-30T08:28:38;16.20;;;14.80;;
27666;SDS011;15074;50.940;5.282;2022-09-30T08:31:09;16.63;;;15.00;;
27666;SDS011;15074;50.940;5.282;2022-09-30T08:33:40;15.93;;;14.27;;
27666;SDS011;15074;50.940;5.282;2022-09-30T08:36:07;15.43;;;13.38;;
27666;SDS011;15074;50.940;5.282;2022-09-30T08:38:34;15.05;;;13.75;;
27666;SDS011;15074;50.940;5.282;2022-09-30T08:43:40;14.35;;;13.25;;
27666;SDS011;15074;50.940;5.282;2022-09-30T08:49:27;12.88;;;11.77;;
27666;SDS011;15074;50.940;5.282;2022-09-30T08:52:16;13.52;;;12.23;;
27666;SDS011;15074;50.940;5.282;2022-09-30T08:54:47;13.85;;;12.43;;
27666;SDS011;15074;50.940;5.282;2022-09-30T08:57:17;13.88;;;12.75;;
27666;SDS011;15074;50.940;5.282;2022-09-30T09:02:25;15.80;;;14.05;;
27666;SDS011;15074;50.940;5.282;2022-09-30T09:05:03;13.65;;;12.35;;
27666;SDS011;15074;50.940;5.282;2022-09-30T09:07:42;15.40;;;12.88;;
27666;SDS011;15074;50.940;5.282;2022-09-30T09:10:44;13.82;;;12.40;;
27666;SDS011;15074;50.940;5.282;2022-09-30T09:18:50;13.20;;;11.90;;
27666;SDS011;15074;50.940;5.282;2022-09-30T09:24:13;11.70;;;10.40;;
27666;SDS011;15074;50.940;5.282;2022-09-30T09:26:41;12.48;;;11.27;;
27666;SDS011;15074;50.940;5.282;2022-09-30T09:31:57;11.80;;;10.60;;
27666;SDS011;15074;50.940;5.282;2022-09-30T09:34:29;12.05;;;10.85;;
27666;SDS011;15074;50.940;5.282;2022-09-30T09:40:30;10.25;;;9.25;;
27666;SDS011;15074;50.940;5.282;2022-09-30T09:43:30;11.02;;;9.25;;
27666;SDS011;15074;50.940;5.282;2022-09-30T09:46:19;11.30;;;9.10;;
27666;SDS011;15074;50.940;5.282;2022-09-30T09:49:40;6.68;;;5.97;;
27666;SDS011;15074;50.940;5.282;2022-09-30T09:51:50;7.65;;;5.10;;
27666;SDS011;15074;50.940;5.282;2022-09-30T09:54:20;5.50;;;4.38;;
27666;SDS011;15074;50.940;5.282;2022-09-30T09:56:47;6.55;;;5.30;;
27666;SDS011;15074;50.940;5.282;2022-09-30T09:59:14;5.95;;;4.88;;
27666;SDS011;15074;50.940;5.282;2022-09-30T10:01:44;5.65;;;5.05;;
27666;SDS011;15074;50.940;5.282;2022-09-30T10:04:18;5.35;;;3.55;;
27666;SDS011;15074;50.940;5.282;2022-09-30T10:06:49;4.63;;;4.05;;
27666;SDS011;15074;50.940;5.282;2022-09-30T10:09:27;5.53;;;2.95;;
27666;SDS011;15074;50.940;5.282;2022-09-30T10:14:36;2.50;;;2.30;;
27666;SDS011;15074;50.940;5.282;2022-09-30T10:17:18;2.30;;;1.77;;
27666;SDS011;15074;50.940;5.282;2022-09-30T10:19:59;4.22;;;2.78;;
27666;SDS011;15074;50.940;5.282;2022-09-30T10:22:31;3.65;;;2.58;;
27666;SDS011;15074;50.940;5.282;2022-09-30T10:27:58;2.50;;;2.30;;
27666;SDS011;15074;50.940;5.282;2022-09-30T10:30:52;3.00;;;2.42;;
27666;SDS011;15074;50.940;5.282;2022-09-30T10:33:24;13.88;;;10.75;;
27666;SDS011;15074;50.940;5.282;2022-09-30T10:38:30;2.25;;;1.73;;
27666;SDS011;15074;50.940;5.282;2022-09-30T10:40:58;1.60;;;1.45;;
27666;SDS011;15074;50.940;5.282;2022-09-30T10:43:27;1.40;;;1.20;;
27666;SDS011;15074;50.940;5.282;2022-09-30T10:45:53;2.42;;;1.48;;
27666;SDS011;15074;50.940;5.282;2022-09-30T10:48:20;1.92;;;1.63;;
27666;SDS011;15074;50.940;5.282;2022-09-30T10:50:50;2.67;;;1.60;;
27666;SDS011;15074;50.940;5.282;2022-09-30T10:53:19;2.15;;;1.40;;
27666;SDS011;15074;50.940;5.282;2022-09-30T10:55:48;3.13;;;1.35;;
27666;SDS011;15074;50.940;5.282;2022-09-30T11:01:30;1.83;;;1.10;;
27666;SDS011;15074;50.940;5.282;2022-09-30T11:07:14;2.53;;;1.48;;
27666;SDS011;15074;50.940;5.282;2022-09-30T11:18:30;2.90;;;1.05;;
27666;SDS011;15074;50.940;5.282;2022-09-30T11:21:21;1.48;;;1.00;;
27666;SDS011;15074;50.940;5.282;2022-09-30T11:24:02;1.92;;;1.20;;
27666;SDS011;15074;50.940;5.282;2022-09-30T11:29:51;1.55;;;1.30;;
27666;SDS011;15074;50.940;5.282;2022-09-30T11:51:32;1.20;;;0.73;;
27666;SDS011;15074;50.940;5.282;2022-09-30T11:59:47;1.50;;;1.00;;
27666;SDS011;15074;50.940;5.282;2022-09-30T12:02:40;0.82;;;0.65;;
27666;SDS011;15074;50.940;5.282;2022-09-30T12:05:42;0.57;;;0.50;;
27666;SDS011;15074;50.940;5.282;2022-09-30T12:08:16;0.73;;;0.60;;
27666;SDS011;15074;50.940;5.282;2022-09-30T12:10:50;0.70;;;0.68;;
27666;SDS011;15074;50.940;5.282;2022-09-30T12:13:23;1.08;;;0.80;;
27666;SDS011;15074;50.940;5.282;2022-09-30T12:15:53;1.40;;;0.80;;
27666;SDS011;15074;50.940;5.282;2022-09-30T12:18:24;1.90;;;0.93;;
27666;SDS011;15074;50.940;5.282;2022-09-30T12:20:58;1.45;;;0.70;;
27666;SDS011;15074;50.940;5.282;2022-09-30T12:25:58;3.70;;;0.80;;
27666;SDS011;15074;50.940;5.282;2022-09-30T12:36:48;0.88;;;0.70;;
27666;SDS011;15074;50.940;5.282;2022-09-30T12:39:44;0.93;;;0.60;;
27666;SDS011;15074;50.940;5.282;2022-09-30T12:48:01;2.03;;;1.20;;
27666;SDS011;15074;50.940;5.282;2022-09-30T12:50:39;1.95;;;0.98;;
27666;SDS011;15074;50.940;5.282;2022-09-30T12:53:17;1.55;;;1.10;;
27666;SDS011;15074;50.940;5.282;2022-09-30T12:55:52;1.55;;;1.20;;
27666;SDS011;15074;50.940;5.282;2022-09-30T13:00:50;3.17;;;1.38;;
27666;SDS011;15074;50.940;5.282;2022-09-30T13:03:24;3.85;;;1.30;;
27666;SDS011;15074;50.940;5.282;2022-09-30T13:06:12;3.42;;;1.27;;
27666;SDS011;15074;50.940;5.282;2022-09-30T13:08:43;6.97;;;1.60;;
27666;SDS011;15074;50.940;5.282;2022-09-30T13:29:59;1.25;;;0.70;;
27666;SDS011;15074;50.940;5.282;2022-09-30T13:32:35;2.53;;;0.82;;
27666;SDS011;15074;50.940;5.282;2022-09-30T13:35:14;1.48;;;0.70;;
27666;SDS011;15074;50.940;5.282;2022-09-30T13:43:25;0.82;;;0.50;;
27666;SDS011;15074;50.940;5.282;2022-09-30T13:45:58;1.13;;;0.70;;
27666;SDS011;15074;50.940;5.282;2022-09-30T13:48:50;0.90;;;0.60;;
27666;SDS011;15074;50.940;5.282;2022-09-30T13:51:21;1.58;;;0.68;;
27666;SDS011;15074;50.940;5.282;2022-09-30T13:53:53;2.08;;;0.52;;
27666;SDS011;15074;50.940;5.282;2022-09-30T13:56:26;3.10;;;0.60;;
27666;SDS011;15074;50.940;5.282;2022-09-30T14:02:19;4.25;;;0.73;;
27666;SDS011;15074;50.940;5.282;2022-09-30T14:16:00;0.80;;;0.50;;
27666;SDS011;15074;50.940;5.282;2022-09-30T14:21:35;1.58;;;0.52;;
27666;SDS011;15074;50.940;5.282;2022-09-30T14:24:25;1.52;;;0.50;;
27666;SDS011;15074;50.940;5.282;2022-09-30T14:32:31;1.00;;;0.60;;
27666;SDS011;15074;50.940;5.282;2022-09-30T14:35:19;1.30;;;0.50;;
27666;SDS011;15074;50.940;5.282;2022-09-30T14:37:53;1.40;;;0.60;;
27666;SDS011;15074;50.940;5.282;2022-09-30T14:40:29;0.70;;;0.50;;
27666;SDS011;15074;50.940;5.282;2022-09-30T14:42:58;1.80;;;1.00;;
27666;SDS011;15074;50.940;5.282;2022-09-30T14:45:28;1.40;;;0.90;;
27666;SDS011;15074;50.940;5.282;2022-09-30T14:51:00;2.30;;;1.10;;
27666;SDS011;15074;50.940;5.282;2022-09-30T14:56:01;5.65;;;1.20;;
27666;SDS011;15074;50.940;5.282;2022-09-30T14:58:39;4.65;;;0.80;;
27666;SDS011;15074;50.940;5.282;2022-09-30T15:01:11;1.50;;;0.80;;
27666;SDS011;15074;50.940;5.282;2022-09-30T15:03:41;2.38;;;0.93;;
27666;SDS011;15074;50.940;5.282;2022-09-30T15:06:22;1.30;;;0.70;;
27666;SDS011;15074;50.940;5.282;2022-09-30T15:08:59;2.50;;;0.98;;
27666;SDS011;15074;50.940;5.282;2022-09-30T15:11:29;2.63;;;0.82;;
27666;SDS011;15074;50.940;5.282;2022-09-30T15:14:30;2.17;;;0.90;;
27666;SDS011;15074;50.940;5.282;2022-09-30T15:19:18;1.90;;;0.70;;
27666;SDS011;15074;50.940;5.282;2022-09-30T15:21:46;1.70;;;0.77;;
27666;SDS011;15074;50.940;5.282;2022-09-30T15:24:13;1.58;;;0.80;;
27666;SDS011;15074;50.940;5.282;2022-09-30T15:26:41;1.13;;;0.82;;
27666;SDS011;15074;50.940;5.282;2022-09-30T15:29:14;1.00;;;0.80;;
27666;SDS011;15074;50.940;5.282;2022-09-30T15:31:43;1.35;;;0.93;;
27666;SDS011;15074;50.940;5.282;2022-09-30T15:36:39;2.15;;;0.82;;
27666;SDS011;15074;50.940;5.282;2022-09-30T15:39:17;1.33;;;1.00;;
27666;SDS011;15074;50.940;5.282;2022-09-30T15:41:46;1.50;;;1.13;;
27666;SDS011;15074;50.940;5.282;2022-09-30T15:44:17;1.98;;;1.38;;
27666;SDS011;15074;50.940;5.282;2022-09-30T15:49:30;2.30;;;1.08;;
27666;SDS011;15074;50.940;5.282;2022-09-30T15:54:45;2.80;;;1.48;;
27666;SDS011;15074;50.940;5.282;2022-09-30T15:57:35;1.40;;;1.00;;
27666;SDS011;15074;50.940;5.282;2022-09-30T16:00:05;1.77;;;0.90;;
27666;SDS011;15074;50.940;5.282;2022-09-30T16:02:37;2.55;;;0.77;;
27666;SDS011;15074;50.940;5.282;2022-09-30T16:05:03;0.70;;;0.70;;
27666;SDS011;15074;50.940;5.282;2022-09-30T16:07:29;0.80;;;0.70;;
27666;SDS011;15074;50.940;5.282;2022-09-30T16:09:56;1.58;;;0.60;;
27666;SDS011;15074;50.940;5.282;2022-09-30T16:12:28;1.55;;;0.80;;
27666;SDS011;15074;50.940;5.282;2022-09-30T16:17:25;0.95;;;0.60;;
27666;SDS011;15074;50.940;5.282;2022-09-30T16:19:55;2.38;;;0.82;;
27666;SDS011;15074;50.940;5.282;2022-09-30T16:22:32;1.50;;;0.82;;
27666;SDS011;15074;50.940;5.282;2022-09-30T16:30:25;1.98;;;0.77;;
27666;SDS011;15074;50.940;5.282;2022-09-30T16:32:54;1.10;;;0.80;;
27666;SDS011;15074;50.940;5.282;2022-09-30T16:35:25;2.83;;;1.08;;
27666;SDS011;15074;50.940;5.282;2022-09-30T16:37:59;1.58;;;0.95;;
27666;SDS011;15074;50.940;5.282;2022-09-30T16:40:26;4.95;;;1.20;;
27666;SDS011;15074;50.940;5.282;2022-09-30T16:42:54;2.97;;;0.90;;
27666;SDS011;15074;50.940;5.282;2022-09-30T16:45:20;1.20;;;0.98;;
27666;SDS011;15074;50.940;5.282;2022-09-30T16:47:46;3.33;;;1.00;;
27666;SDS011;15074;50.940;5.282;2022-09-30T16:50:16;2.92;;;1.10;;
27666;SDS011;15074;50.940;5.282;2022-09-30T16:52:54;2.13;;;1.10;;
27666;SDS011;15074;50.940;5.282;2022-09-30T16:55:20;2.17;;;1.05;;
27666;SDS011;15074;50.940;5.282;2022-09-30T16:57:45;4.90;;;1.63;;
27666;SDS011;15074;50.940;5.282;2022-09-30T17:00:14;3.83;;;1.00;;
27666;SDS011;15074;50.940;5.282;2022-09-30T17:02:42;2.75;;;1.08;;
27666;SDS011;15074;50.940;5.282;2022-09-30T17:05:15;2.08;;;1.27;;
27666;SDS011;15074;50.940;5.282;2022-09-30T17:07:44;1.52;;;1.20;;
27666;SDS011;15074;50.940;5.282;2022-09-30T17:10:14;5.22;;;1.60;;
27666;SDS011;15074;50.940;5.282;2022-09-30T17:12:43;2.45;;;1.27;;
27666;SDS011;15074;50.940;5.282;2022-09-30T17:15:09;1.13;;;1.00;;
27666;SDS011;15074;50.940;5.282;2022-09-30T17:17:36;2.88;;;1.27;;
27666;SDS011;15074;50.940;5.282;2022-09-30T17:20:02;2.17;;;1.00;;
27666;SDS011;15074;50.940;5.282;2022-09-30T17:22:28;2.08;;;1.30;;
27666;SDS011;15074;50.940;5.282;2022-09-30T17:24:54;2.08;;;1.10;;
27666;SDS011;15074;50.940;5.282;2022-09-30T17:27:20;3.15;;;1.30;;
27666;SDS011;15074;50.940;5.282;2022-09-30T17:29:46;1.85;;;1.27;;
27666;SDS011;15074;50.940;5.282;2022-09-30T17:32:12;2.85;;;1.50;;
27666;SDS011;15074;50.940;5.282;2022-09-30T17:34:38;3.17;;;1.30;;
27666;SDS011;15074;50.940;5.282;2022-09-30T17:37:05;1.98;;;1.20;;
27666;SDS011;15074;50.940;5.282;2022-09-30T17:39:31;5.47;;;1.60;;
27666;SDS011;15074;50.940;5.282;2022-09-30T17:41:57;2.25;;;1.30;;
27666;SDS011;15074;50.940;5.282;2022-09-30T17:44:41;1.52;;;1.20;;
27666;SDS011;15074;50.940;5.282;2022-09-30T17:47:06;3.00;;;1.40;;
27666;SDS011;15074;50.940;5.282;2022-09-30T17:49:33;1.80;;;1.35;;
27666;SDS011;15074;50.940;5.282;2022-09-30T17:51:59;3.53;;;1.75;;
27666;SDS011;15074;50.940;5.282;2022-09-30T17:54:45;3.78;;;1.40;;
27666;SDS011;15074;50.940;5.282;2022-09-30T17:57:11;3.92;;;1.50;;
27666;SDS011;15074;50.940;5.282;2022-09-30T17:59:37;2.58;;;1.40;;
27666;SDS011;15074;50.940;5.282;2022-09-30T18:02:03;1.98;;;1.30;;
27666;SDS011;15074;50.940;5.282;2022-09-30T18:04:29;2.10;;;1.50;;
27666;SDS011;15074;50.940;5.282;2022-09-30T18:06:55;3.28;;;1.30;;
27666;SDS011;15074;50.940;5.282;2022-09-30T18:09:21;2.28;;;1.40;;
27666;SDS011;15074;50.940;5.282;2022-09-30T18:11:47;2.47;;;1.40;;
27666;SDS011;15074;50.940;5.282;2022-09-30T18:14:13;3.13;;;1.50;;
27666;SDS011;15074;50.940;5.282;2022-09-30T18:16:40;1.65;;;1.48;;
27666;SDS011;15074;50.940;5.282;2022-09-30T18:19:06;2.38;;;1.52;;
27666;SDS011;15074;50.940;5.282;2022-09-30T18:21:33;2.28;;;1.83;;
27666;SDS011;15074;50.940;5.282;2022-09-30T18:24:00;1.83;;;1.60;;
27666;SDS011;15074;50.940;5.282;2022-09-30T18:26:27;4.47;;;1.60;;
27666;SDS011;15074;50.940;5.282;2022-09-30T18:28:54;2.70;;;2.42;;
27666;SDS011;15074;50.940;5.282;2022-09-30T18:31:21;2.78;;;2.10;;
27666;SDS011;15074;50.940;5.282;2022-09-30T18:33:56;2.75;;;2.53;;
27666;SDS011;15074;50.940;5.282;2022-09-30T18:36:22;3.65;;;2.40;;
27666;SDS011;15074;50.940;5.282;2022-09-30T18:38:49;3.92;;;2.50;;
27666;SDS011;15074;50.940;5.282;2022-09-30T18:41:14;2.25;;;2.05;;